createdAt,value
2023-03-01T00:02:10.265Z,6.96
2023-03-01T00:04:37.174Z,7.40
2023-03-01T00:07:06.161Z,7.20
2023-03-01T00:09:41.216Z,7.58
2023-03-01T00:12:08.428Z,6.92
2023-03-01T00:14:38.708Z,5.68
2023-03-01T00:17:05.502Z,7.20
2023-03-01T00:19:38.108Z,7.25
2023-03-01T00:22:10.554Z,7.59
2023-03-01T00:24:42.226Z,7.32
2023-03-01T00:27:08.933Z,7.23
2023-03-01T00:29:35.741Z,7.40
2023-03-01T00:32:02.510Z,7.68
2023-03-01T00:34:32.062Z,7.38
2023-03-01T00:37:06.211Z,7.22
2023-03-01T00:39:36.595Z,7.01
2023-03-01T00:42:09.503Z,6.45
2023-03-01T00:44:38.512Z,7.35
2023-03-01T00:47:05.324Z,7.29
2023-03-01T00:49:34.260Z,7.81
2023-03-01T00:52:03.246Z,7.88
2023-03-01T00:54:32.796Z,7.38
2023-03-01T00:57:02.256Z,6.91
2023-03-01T00:59:33.704Z,7.50
2023-03-01T01:02:04.530Z,7.02
2023-03-01T01:04:38.336Z,7.48
2023-03-01T01:07:11.262Z,7.52
2023-03-01T01:09:43.059Z,7.53
2023-03-01T01:12:17.334Z,7.30
2023-03-01T01:14:47.585Z,7.59
2023-03-01T01:17:14.352Z,7.49
2023-03-01T01:19:46.158Z,6.93
2023-03-01T01:22:17.680Z,6.75
2023-03-01T01:24:49.710Z,6.81
2023-03-01T01:27:22.200Z,7.08
2023-03-01T01:29:53.648Z,7.28
2023-03-01T01:32:27.055Z,7.03
2023-03-01T01:34:54.480Z,6.84
2023-03-01T01:37:21.523Z,6.54
2023-03-01T01:39:54.087Z,7.23
2023-03-01T01:42:24.041Z,6.35
2023-03-01T01:45:30.779Z,7.27
2023-03-01T01:48:14.791Z,7.30
2023-03-01T01:50:43.929Z,6.72
2023-03-01T01:53:18.234Z,6.80
2023-03-01T01:55:52.726Z,6.94
2023-03-01T01:58:23.148Z,7.12
2023-03-01T02:00:50.162Z,6.94
2023-03-01T02:03:24.537Z,6.35
2023-03-01T02:05:55.896Z,7.27
2023-03-01T02:08:31.894Z,6.76
2023-03-01T02:11:00.812Z,7.29
2023-03-01T02:13:29.208Z,6.43
2023-03-01T02:15:56.175Z,7.11
2023-03-01T02:18:24.058Z,7.52
2023-03-01T02:21:14.484Z,7.59
2023-03-01T02:23:42.629Z,7.49
2023-03-01T02:26:15.841Z,7.15
2023-03-01T02:28:46.761Z,6.88
2023-03-01T02:31:38.641Z,7.46
2023-03-01T02:34:08.762Z,7.01
2023-03-01T02:36:55.137Z,6.70
2023-03-01T02:39:48.089Z,7.48
2023-03-01T02:42:20.019Z,7.61
2023-03-01T02:44:46.850Z,7.16
2023-03-01T02:47:13.548Z,6.66
2023-03-01T02:49:41.506Z,6.80
2023-03-01T02:52:42.472Z,7.50
2023-03-01T02:55:11.525Z,7.17
2023-03-01T02:57:43.982Z,7.58
2023-03-01T03:00:21.681Z,7.42
2023-03-01T03:02:53.317Z,6.76
2023-03-01T03:05:30.226Z,6.80
2023-03-01T03:08:00.024Z,6.52
2023-03-01T03:10:35.968Z,7.23
2023-03-01T03:13:08.812Z,6.45
2023-03-01T03:15:41.414Z,7.18
2023-03-01T03:18:16.345Z,7.28
2023-03-01T03:20:44.235Z,7.25
2023-03-01T03:23:11.085Z,7.08
2023-03-01T03:25:40.413Z,7.45
2023-03-01T03:28:13.425Z,7.54
2023-03-01T03:30:43.857Z,7.57
2023-03-01T03:33:16.362Z,7.10
2023-03-01T03:35:45.728Z,7.63
2023-03-01T03:38:20.214Z,7.02
2023-03-01T03:40:52.992Z,7.27
2023-03-01T03:43:24.030Z,7.43
2023-03-01T03:45:51.897Z,7.42
2023-03-01T03:48:21.540Z,7.07
2023-03-01T03:50:56.021Z,7.38
2023-03-01T03:53:24.206Z,7.25
2023-03-01T03:55:55.830Z,6.55
2023-03-01T03:58:26.888Z,7.51
2023-03-01T04:00:56.988Z,6.92
2023-03-01T04:03:27.855Z,7.29
2023-03-01T04:05:59.196Z,7.28
2023-03-01T04:08:26.172Z,6.88
2023-03-01T04:10:54.924Z,6.90
2023-03-01T04:13:23.266Z,7.84
2023-03-01T04:15:53.678Z,7.58
2023-03-01T04:18:27.080Z,7.88
2023-03-01T04:20:58.257Z,7.73
2023-03-01T04:23:25.081Z,7.25
2023-03-01T04:25:59.528Z,7.93
2023-03-01T04:28:26.335Z,7.93
2023-03-01T04:30:57.263Z,7.92
2023-03-01T04:33:24.969Z,7.90
2023-03-01T04:35:52.565Z,7.88
2023-03-01T04:38:22.409Z,6.71
2023-03-01T04:40:49.771Z,7.01
2023-03-01T04:43:18.849Z,7.52
2023-03-01T04:45:47.922Z,7.14
2023-03-01T04:48:19.540Z,7.09
2023-03-01T04:50:48.486Z,7.28
2023-03-01T04:53:15.337Z,6.79
2023-03-01T04:55:42.116Z,7.05
2023-03-01T04:58:09.124Z,7.71
2023-03-01T05:00:35.966Z,6.74
2023-03-01T05:03:03.114Z,7.53
2023-03-01T05:05:37.403Z,7.61
2023-03-01T05:08:08.770Z,7.25
2023-03-01T05:10:37.062Z,6.76
2023-03-01T05:13:05.223Z,6.95
2023-03-01T05:15:34.873Z,7.20
2023-03-01T05:18:04.236Z,6.61
2023-03-01T05:20:31.884Z,7.20
2023-03-01T05:23:00.768Z,7.04
2023-03-01T05:25:34.382Z,7.69
2023-03-01T05:28:07.033Z,7.39
2023-03-01T05:30:34.643Z,7.00
2023-03-01T05:33:01.775Z,7.69
2023-03-01T05:35:33.576Z,7.03
2023-03-01T05:38:05.676Z,7.62
2023-03-01T05:40:34.956Z,6.36
2023-03-01T05:43:02.978Z,7.78
2023-03-01T05:45:30.167Z,6.64
2023-03-01T05:47:57.411Z,7.30
2023-03-01T05:50:33.876Z,7.57
2023-03-01T05:53:05.454Z,7.73
2023-03-01T05:55:35.750Z,7.78
2023-03-01T05:58:04.917Z,7.68
2023-03-01T06:00:31.996Z,7.51
2023-03-01T06:03:04.089Z,7.76
2023-03-01T06:05:33.182Z,6.95
2023-03-01T06:08:03.589Z,7.90
2023-03-01T06:10:30.856Z,7.52
2023-03-01T06:12:58.128Z,7.45
2023-03-01T06:15:30.035Z,7.83
2023-03-01T06:17:59.977Z,7.91
2023-03-01T06:20:33.777Z,7.62
2023-03-01T06:23:03.225Z,7.77
2023-03-01T06:25:30.249Z,7.75
2023-03-01T06:27:59.585Z,8.10
2023-03-01T06:30:33.501Z,6.70
2023-03-01T06:33:04.110Z,7.50
2023-03-01T06:35:33.745Z,7.13
2023-03-01T06:38:04.702Z,8.07
2023-03-01T06:40:38.337Z,7.28
2023-03-01T06:43:05.988Z,7.60
2023-03-01T06:45:33.503Z,7.43
2023-03-01T06:48:08.415Z,7.24
2023-03-01T06:50:35.781Z,7.69
2023-03-01T06:53:08.743Z,6.50
2023-03-01T06:55:35.564Z,7.65
2023-03-01T06:58:05.205Z,7.14
2023-03-01T07:00:34.231Z,7.25
2023-03-01T07:03:04.520Z,7.60
2023-03-01T07:05:31.904Z,8.10
2023-03-01T07:07:58.674Z,7.76
2023-03-01T07:10:25.451Z,7.26
2023-03-01T07:12:56.145Z,7.57
2023-03-01T07:15:22.911Z,7.72
2023-03-01T07:17:52.130Z,7.70
2023-03-01T07:20:25.529Z,7.90
2023-03-01T07:22:59.607Z,7.71
2023-03-01T07:25:26.691Z,7.13
2023-03-01T07:27:55.624Z,8.01
2023-03-01T07:30:22.914Z,7.94
2023-03-01T07:32:50.411Z,7.68
2023-03-01T07:35:17.725Z,8.23
2023-03-01T07:37:47.124Z,8.49
2023-03-01T07:40:16.680Z,8.13
2023-03-01T07:42:43.615Z,7.70
2023-03-01T07:45:14.666Z,7.85
2023-03-01T07:47:41.536Z,8.81
2023-03-01T07:50:14.512Z,7.56
2023-03-01T07:52:48.499Z,8.57
2023-03-01T07:55:17.748Z,8.24
2023-03-01T07:57:49.773Z,8.51
2023-03-01T08:00:16.788Z,9.32
2023-03-01T08:02:43.601Z,9.43
2023-03-01T08:05:12.830Z,9.76
2023-03-01T08:07:42.302Z,9.71
2023-03-01T08:10:10.076Z,9.97
2023-03-01T08:12:39.372Z,9.34
2023-03-01T08:15:11.652Z,9.32
2023-03-01T08:17:38.583Z,9.73
2023-03-01T08:20:08.266Z,9.81
2023-03-01T08:22:35.204Z,9.51
2023-03-01T08:25:02.308Z,9.46
2023-03-01T08:27:29.041Z,9.50
2023-03-01T08:30:00.381Z,10.37
2023-03-01T08:32:29.568Z,10.21
2023-03-01T08:35:01.184Z,10.54
2023-03-01T08:37:34.184Z,10.01
2023-03-01T08:40:01.410Z,9.80
2023-03-01T08:42:33.365Z,10.01
2023-03-01T08:45:02.838Z,10.08
2023-03-01T08:47:29.663Z,10.66
2023-03-01T08:49:59.090Z,10.12
2023-03-01T08:52:25.762Z,10.59
2023-03-01T08:54:53.021Z,10.67
2023-03-01T08:57:22.142Z,10.40
2023-03-01T08:59:49.038Z,10.18
2023-03-01T09:02:21.819Z,10.99
2023-03-01T09:04:53.787Z,10.99
2023-03-01T09:07:20.935Z,11.10
2023-03-01T09:09:50.070Z,10.64
2023-03-01T09:12:19.238Z,10.96
2023-03-01T09:14:48.259Z,11.15
2023-03-01T09:17:15.208Z,11.44
2023-03-01T09:19:44.377Z,10.53
2023-03-01T09:22:15.783Z,11.50
2023-03-01T09:24:42.619Z,10.97
2023-03-01T09:27:09.906Z,11.73
2023-03-01T09:29:41.703Z,11.93
2023-03-01T09:32:13.314Z,11.69
2023-03-01T09:35:00.819Z,11.85
2023-03-01T09:37:30.873Z,11.95
2023-03-01T09:39:57.982Z,12.41
2023-03-01T09:42:32.139Z,12.66
2023-03-01T09:45:05.190Z,12.54
2023-03-01T09:47:35.448Z,12.67
2023-03-01T09:50:18.116Z,12.64
2023-03-01T09:53:07.853Z,12.24
2023-03-01T09:55:45.855Z,12.31
2023-03-01T09:58:41.038Z,12.71
2023-03-01T10:01:17.425Z,11.80
2023-03-01T10:04:18.124Z,12.28
2023-03-01T10:07:01.198Z,12.16
2023-03-01T10:09:31.018Z,12.79
2023-03-01T10:12:00.107Z,12.33
2023-03-01T10:14:33.049Z,13.07
2023-03-01T10:17:25.678Z,13.49
2023-03-01T10:19:52.439Z,13.80
2023-03-01T10:22:26.276Z,12.69
2023-03-01T10:24:54.130Z,13.29
2023-03-01T10:27:31.033Z,13.70
2023-03-01T10:30:03.876Z,13.79
2023-03-01T10:32:30.818Z,14.27
2023-03-01T10:35:00.050Z,14.10
2023-03-01T10:37:27.174Z,13.80
2023-03-01T10:40:00.013Z,14.77
2023-03-01T10:42:31.142Z,14.85
2023-03-01T10:44:58.177Z,14.68
2023-03-01T10:47:27.671Z,15.16
2023-03-01T10:50:04.320Z,15.23
2023-03-01T10:52:38.834Z,14.76
2023-03-01T10:55:26.437Z,14.90
2023-03-01T10:58:13.998Z,14.89
2023-03-01T11:00:58.327Z,15.73
2023-03-01T11:03:41.229Z,15.82
2023-03-01T11:06:14.034Z,15.89
2023-03-01T11:08:48.420Z,15.75
2023-03-01T11:11:21.703Z,14.96
2023-03-01T11:13:57.906Z,15.72
2023-03-01T11:16:34.622Z,15.22
2023-03-01T11:19:22.441Z,16.44
2023-03-01T11:22:23.431Z,16.88
2023-03-01T11:25:09.059Z,17.23
2023-03-01T11:27:41.008Z,17.59
2023-03-01T11:30:08.325Z,17.59
2023-03-01T11:32:44.461Z,16.88
2023-03-01T11:35:27.789Z,16.58
2023-03-01T11:38:00.537Z,17.29
2023-03-01T11:40:39.153Z,17.14
2023-03-01T11:43:21.256Z,16.48
2023-03-01T11:45:51.060Z,17.20
2023-03-01T11:48:43.327Z,16.84
2023-03-01T11:51:40.199Z,16.45
2023-03-01T11:54:26.010Z,16.33
2023-03-01T11:56:55.900Z,15.90
2023-03-01T11:59:44.054Z,16.29
2023-03-01T12:03:01.516Z,16.45
2023-03-01T12:05:52.276Z,16.55
2023-03-01T12:08:24.853Z,15.91
2023-03-01T12:11:36.068Z,16.23
2023-03-01T12:14:33.413Z,16.46
2023-03-01T12:17:21.776Z,16.50
2023-03-01T12:20:15.326Z,16.27
2023-03-01T12:23:23.068Z,15.49
2023-03-01T12:26:09.503Z,16.20
2023-03-01T12:29:21.510Z,16.29
2023-03-01T12:32:05.964Z,16.32
2023-03-01T12:34:50.889Z,16.31
2023-03-01T12:37:20.606Z,16.79
2023-03-01T12:40:15.297Z,17.25
2023-03-01T12:42:58.709Z,17.71
2023-03-01T12:45:49.322Z,18.51
2023-03-01T12:48:25.470Z,18.58
2023-03-01T12:50:59.589Z,18.63
2023-03-01T12:53:36.731Z,18.92
2023-03-01T12:56:07.408Z,18.17
2023-03-01T12:58:49.615Z,18.95
2023-03-01T13:01:17.214Z,18.80
2023-03-01T13:03:59.470Z,19.45
2023-03-01T13:06:45.566Z,18.91
2023-03-01T13:09:33.053Z,18.81
2023-03-01T13:12:00.693Z,18.23
2023-03-01T13:14:34.049Z,18.68
2023-03-01T13:17:00.872Z,18.25
2023-03-01T13:19:31.088Z,18.56
2023-03-01T13:21:58.302Z,17.92
2023-03-01T13:24:41.899Z,18.16
2023-03-01T13:27:08.675Z,20.13
2023-03-01T13:29:46.520Z,20.41
2023-03-01T13:32:44.452Z,21.87
2023-03-01T13:35:11.980Z,22.22
2023-03-01T13:37:38.944Z,21.67
2023-03-01T13:40:26.204Z,22.94
2023-03-01T13:43:04.689Z,23.37
2023-03-01T13:45:42.201Z,23.61
2023-03-01T13:48:26.489Z,23.43
2023-03-01T13:51:01.462Z,21.79
2023-03-01T13:53:31.916Z,23.53
2023-03-01T13:56:34.866Z,23.35
2023-03-01T13:59:22.211Z,22.97
2023-03-01T14:02:01.049Z,23.80
2023-03-01T14:04:36.864Z,24.40
2023-03-01T14:07:25.126Z,25.37
2023-03-01T14:09:54.645Z,24.84
2023-03-01T14:12:34.574Z,24.87
2023-03-01T14:15:05.953Z,25.07
2023-03-01T14:17:56.306Z,25.63
2023-03-01T14:20:24.592Z,26.62
2023-03-01T14:22:59.004Z,27.43
2023-03-01T14:25:31.213Z,27.23
2023-03-01T14:28:19.241Z,27.42
2023-03-01T14:30:49.354Z,26.97
2023-03-01T14:33:40.589Z,27.21
2023-03-01T14:36:14.427Z,25.25
2023-03-01T14:38:43.676Z,28.07
2023-03-01T14:41:22.052Z,28.13
2023-03-01T14:43:51.818Z,28.32
2023-03-01T14:46:28.082Z,27.60
2023-03-01T14:48:59.341Z,27.09
2023-03-01T14:51:28.590Z,26.87
2023-03-01T14:53:55.666Z,26.78
2023-03-01T14:56:22.413Z,26.05
2023-03-01T14:58:58.010Z,26.02
2023-03-01T15:01:24.896Z,26.02
2023-03-01T15:03:52.285Z,25.11
2023-03-01T15:06:23.347Z,26.24
2023-03-01T15:08:57.876Z,25.70
2023-03-01T15:11:29.992Z,25.67
2023-03-01T15:14:01.617Z,24.66
2023-03-01T15:16:32.399Z,24.14
2023-03-01T15:19:07.652Z,23.83
2023-03-01T15:21:40.342Z,23.16
2023-03-01T15:24:20.589Z,22.45
2023-03-01T15:26:54.866Z,21.11
2023-03-01T15:29:31.118Z,20.73
2023-03-01T15:32:06.983Z,19.66
2023-03-01T15:34:37.849Z,19.51
2023-03-01T15:37:09.757Z,18.94
2023-03-01T15:39:55.457Z,19.10
2023-03-01T15:42:28.376Z,19.25
2023-03-01T15:45:10.700Z,19.55
2023-03-01T15:47:42.784Z,19.48
2023-03-01T15:50:31.379Z,19.28
2023-03-01T15:53:04.960Z,18.48
2023-03-01T15:55:34.587Z,19.13
2023-03-01T15:58:10.694Z,19.01
2023-03-01T16:00:37.539Z,18.06
2023-03-01T16:03:08.412Z,17.92
2023-03-01T16:05:37.267Z,17.67
2023-03-01T16:08:04.956Z,17.40
2023-03-01T16:10:32.600Z,16.45
2023-03-01T16:12:59.907Z,17.02
2023-03-01T16:15:38.983Z,16.81
2023-03-01T16:18:10.884Z,16.19
2023-03-01T16:20:43.376Z,15.49
2023-03-01T16:23:16.447Z,15.94
2023-03-01T16:25:43.206Z,15.46
2023-03-01T16:28:12.205Z,15.17
2023-03-01T16:30:40.990Z,14.63
2023-03-01T16:33:26.911Z,14.65
2023-03-01T16:35:57.215Z,13.55
2023-03-01T16:38:24.100Z,14.55
2023-03-01T16:40:54.643Z,13.85
2023-03-01T16:43:21.561Z,13.95
2023-03-01T16:45:51.066Z,13.89
2023-03-01T16:48:17.853Z,13.95
2023-03-01T16:50:44.727Z,13.99
2023-03-01T16:53:16.619Z,13.83
2023-03-01T16:55:46.490Z,13.53
2023-03-01T16:58:17.705Z,12.91
2023-03-01T17:00:44.503Z,13.29
2023-03-01T17:03:11.307Z,12.62
2023-03-01T17:05:43.675Z,13.28
2023-03-01T17:08:10.855Z,12.86
2023-03-01T17:10:37.533Z,12.88
2023-03-01T17:13:04.737Z,13.03
2023-03-01T17:15:31.412Z,13.15
2023-03-01T17:17:58.123Z,13.06
2023-03-01T17:20:27.118Z,12.48
2023-03-01T17:22:53.871Z,12.53
2023-03-01T17:25:25.456Z,11.76
2023-03-01T17:27:52.917Z,12.06
2023-03-01T17:30:19.941Z,12.66
2023-03-01T17:32:47.383Z,12.33
2023-03-01T17:35:16.982Z,11.94
2023-03-01T17:37:46.654Z,11.33
2023-03-01T17:40:16.779Z,10.80
2023-03-01T17:42:43.697Z,11.65
2023-03-01T17:45:13.342Z,11.32
2023-03-01T17:47:42.298Z,11.52
2023-03-01T17:50:09.596Z,11.10
2023-03-01T17:52:41.363Z,11.76
2023-03-01T17:55:11.499Z,11.03
2023-03-01T17:57:41.188Z,10.47
2023-03-01T18:00:11.804Z,10.91
2023-03-01T18:02:41.422Z,10.74
2023-03-01T18:05:11.418Z,11.39
2023-03-01T18:07:42.973Z,11.26
2023-03-01T18:10:10.428Z,11.19
2023-03-01T18:12:38.257Z,9.35
2023-03-01T18:15:08.489Z,10.51
2023-03-01T18:17:38.010Z,10.95
2023-03-01T18:20:06.326Z,10.20
2023-03-01T18:22:33.745Z,10.51
2023-03-01T18:25:02.896Z,10.64
2023-03-01T18:27:29.643Z,10.48
2023-03-01T18:29:59.024Z,10.42
2023-03-01T18:32:26.771Z,10.40
2023-03-01T18:34:55.780Z,10.08
2023-03-01T18:37:30.060Z,9.80
2023-03-01T18:39:56.974Z,9.59
2023-03-01T18:42:26.070Z,9.89
2023-03-01T18:44:55.051Z,9.74
2023-03-01T18:47:22.292Z,9.60
2023-03-01T18:49:51.442Z,9.73
2023-03-01T18:52:20.700Z,9.96
2023-03-01T18:54:50.661Z,9.99
2023-03-01T18:57:17.485Z,9.68
2023-03-01T18:59:48.984Z,9.94
2023-03-01T19:02:16.091Z,9.44
2023-03-01T19:04:45.141Z,9.74
2023-03-01T19:07:12.789Z,9.38
2023-03-01T19:09:40.316Z,9.72
2023-03-01T19:12:09.902Z,10.11
2023-03-01T19:14:36.667Z,9.62
2023-03-01T19:17:05.313Z,9.46
2023-03-01T19:19:36.834Z,9.45
2023-03-01T19:22:05.934Z,9.45
2023-03-01T19:24:35.446Z,9.96
2023-03-01T19:27:02.672Z,9.13
2023-03-01T19:29:29.404Z,9.55
2023-03-01T19:31:56.270Z,9.18
2023-03-01T19:34:28.206Z,9.12
2023-03-01T19:36:57.076Z,9.18
2023-03-01T19:39:27.489Z,8.86
2023-03-01T19:41:54.395Z,8.88
2023-03-01T19:44:25.043Z,8.64
2023-03-01T19:46:57.502Z,9.33
2023-03-01T19:49:29.951Z,9.34
2023-03-01T19:52:03.200Z,9.10
2023-03-01T19:54:32.229Z,8.64
2023-03-01T19:57:00.614Z,8.54
2023-03-01T19:59:28.414Z,8.22
2023-03-01T20:01:56.250Z,8.13
2023-03-01T20:04:23.544Z,8.68
2023-03-01T20:06:51.569Z,8.90
2023-03-01T20:09:22.238Z,8.58
2023-03-01T20:11:50.366Z,8.42
2023-03-01T20:14:17.837Z,8.28
2023-03-01T20:16:44.774Z,8.23
2023-03-01T20:19:11.564Z,8.04
2023-03-01T20:21:38.809Z,8.07
2023-03-01T20:24:08.097Z,8.37
2023-03-01T20:26:37.384Z,8.85
2023-03-01T20:29:09.818Z,8.47
2023-03-01T20:31:37.027Z,8.75
2023-03-01T20:34:04.546Z,8.29
2023-03-01T20:36:31.987Z,8.12
2023-03-01T20:38:58.790Z,8.28
2023-03-01T20:41:28.729Z,8.06
2023-03-01T20:43:59.451Z,7.00
2023-03-01T20:46:32.724Z,8.36
2023-03-01T20:49:02.956Z,8.22
2023-03-01T20:51:33.019Z,7.37
2023-03-01T20:54:02.603Z,7.72
2023-03-01T20:56:29.288Z,8.05
2023-03-01T20:59:04.517Z,6.95
2023-03-01T21:01:31.779Z,7.74
2023-03-01T21:04:00.833Z,7.27
2023-03-01T21:06:27.874Z,6.83
2023-03-01T21:08:59.163Z,6.89
2023-03-01T21:11:26.221Z,5.17
2023-03-01T21:13:57.809Z,7.12
2023-03-01T21:16:24.776Z,7.86
2023-03-01T21:18:54.003Z,7.76
2023-03-01T21:21:23.402Z,7.72
2023-03-01T21:23:50.422Z,7.27
2023-03-01T21:26:20.503Z,7.61
2023-03-01T21:28:51.024Z,6.08
2023-03-01T21:31:25.090Z,7.47
2023-03-01T21:33:56.643Z,7.48
2023-03-01T21:36:24.704Z,7.47
2023-03-01T21:38:52.371Z,7.46
2023-03-01T21:41:21.992Z,7.08
2023-03-01T21:43:50.685Z,6.90
2023-03-01T21:46:20.852Z,6.82
2023-03-01T21:48:48.614Z,5.98
2023-03-01T21:51:19.612Z,6.38
2023-03-01T21:53:46.694Z,6.64
2023-03-01T21:56:18.589Z,7.18
2023-03-01T21:58:47.639Z,6.82
2023-03-01T22:01:16.848Z,7.21
2023-03-01T22:03:47.336Z,7.17
2023-03-01T22:06:22.904Z,6.39
2023-03-01T22:08:53.078Z,7.15
2023-03-01T22:11:21.111Z,6.82
2023-03-01T22:13:52.674Z,7.05
2023-03-01T22:16:20.742Z,6.97
2023-03-01T22:18:52.345Z,6.04
2023-03-01T22:21:20.097Z,6.45
2023-03-01T22:23:49.521Z,6.34
2023-03-01T22:26:22.363Z,6.95
2023-03-01T22:28:49.358Z,5.89
2023-03-01T22:31:18.625Z,6.32
2023-03-01T22:33:46.858Z,6.26
2023-03-01T22:36:13.656Z,6.31
2023-03-01T22:38:42.934Z,6.73
2023-03-01T22:41:12.302Z,6.27
2023-03-01T22:43:44.147Z,3.53
2023-03-01T22:46:17.179Z,5.87
2023-03-01T22:48:47.230Z,6.42
2023-03-01T22:51:24.277Z,5.87
2023-03-01T22:53:51.047Z,6.06
2023-03-01T22:56:21.150Z,5.73
2023-03-01T22:58:48.280Z,6.39
2023-03-01T23:01:21.191Z,6.40
2023-03-01T23:03:50.732Z,5.79
2023-03-01T23:06:23.497Z,5.23
2023-03-01T23:08:51.386Z,5.22
2023-03-01T23:11:19.582Z,5.89
2023-03-01T23:13:46.551Z,5.89
2023-03-01T23:16:15.969Z,5.25
2023-03-01T23:18:45.471Z,6.00
2023-03-01T23:21:19.556Z,5.84
2023-03-01T23:23:49.702Z,5.94
2023-03-01T23:26:24.585Z,5.87
2023-03-01T23:28:57.714Z,4.75
2023-03-01T23:31:30.023Z,5.60
2023-03-01T23:33:59.109Z,5.32
2023-03-01T23:36:31.638Z,5.35
2023-03-01T23:39:06.098Z,5.24
2023-03-01T23:41:37.890Z,5.75
2023-03-01T23:44:09.459Z,5.76
2023-03-01T23:46:41.310Z,5.33
2023-03-01T23:49:10.550Z,4.94
2023-03-01T23:51:41.827Z,5.35
2023-03-01T23:54:09.315Z,5.16
2023-03-01T23:56:43.486Z,5.56
2023-03-01T23:59:16.788Z,5.56
